Time;durP1;ratioP1;P1;durP2;ratioP2;P2;SDS_P1;SDS_P2;PMS_P1;PMS_P2;Temp;Humidity;BMP_temperature;BMP_pressure;BME280_temperature;BME280_humidity;BME280_pressure;Samples;Min_cycle;Max_cycle;Signal;HPM_P1;HPM_P2
2022/12/24 00:00:23;;;;;;;33.80;5.97;;;11.10;99.90;;;;;;5078073;28;20438;-86
2022/12/24 00:02:49;;;;;;;20.13;5.00;;;11.10;99.90;;;;;;5076977;28;20244;-86
2022/12/24 00:05:15;;;;;;;24.33;6.70;;;11.10;99.90;;;;;;5089104;28;20434;-86
2022/12/24 00:07:40;;;;;;;18.47;5.00;;;11.10;99.90;;;;;;5090973;28;20540;-86
2022/12/24 00:10:07;;;;;;;23.53;5.73;;;11.10;99.90;;;;;;5093496;28;20179;-86
2022/12/24 00:12:32;;;;;;;31.53;5.10;;;11.10;99.90;;;;;;5091463;28;20192;-87
2022/12/24 00:14:58;;;;;;;24.07;4.73;;;11.10;99.90;;;;;;5092414;28;20445;-87
2022/12/24 00:17:23;;;;;;;18.40;5.17;;;11.20;99.90;;;;;;5078046;28;20679;-87
2022/12/24 00:19:49;;;;;;;20.13;4.90;;;11.20;99.90;;;;;;5087587;28;20188;-87
2022/12/24 00:22:14;;;;;;;23.27;5.13;;;11.30;99.90;;;;;;5090726;28;20208;-87
2022/12/24 00:24:40;;;;;;;33.07;6.80;;;11.30;99.90;;;;;;5089989;28;20184;-87
2022/12/24 00:27:05;;;;;;;20.37;5.03;;;11.30;99.90;;;;;;5084891;28;20949;-87
2022/12/24 00:29:32;;;;;;;33.43;6.17;;;11.30;99.90;;;;;;5080980;28;20195;-86
2022/12/24 00:31:58;;;;;;;25.17;5.27;;;11.20;1.00;;;;;;5089435;28;21153;-86
2022/12/24 00:34:24;;;;;;;21.20;4.27;;;11.20;1.00;;;;;;5087380;28;20459;-87
2022/12/24 00:36:50;;;;;;;19.27;5.50;;;11.20;1.00;;;;;;5086312;28;20195;-85
2022/12/24 00:39:16;;;;;;;24.30;5.40;;;11.20;1.00;;;;;;5080649;28;20462;-87
2022/12/24 00:41:41;;;;;;;21.20;4.53;;;11.20;1.00;;;;;;5086942;28;20500;-86
2022/12/24 00:44:10;;;;;;;33.83;7.40;;;11.20;1.00;;;;;;5082387;28;21222;-87
2022/12/24 00:46:38;;;;;;;36.17;5.67;;;11.10;1.00;;;;;;5089236;28;20196;-87
2022/12/24 00:49:05;;;;;;;38.83;6.90;;;11.10;1.00;;;;;;5083586;28;20466;-86
2022/12/24 00:51:31;;;;;;;20.50;5.40;;;11.10;1.00;;;;;;5090212;28;20947;-86
2022/12/24 00:53:57;;;;;;;26.47;4.60;;;11.10;1.00;;;;;;5082858;28;20566;-87
2022/12/24 00:56:23;;;;;;;27.57;5.93;;;11.10;1.00;;;;;;5086212;28;20441;-86
2022/12/24 00:58:49;;;;;;;26.90;4.87;;;11.10;1.00;;;;;;5086443;28;20465;-86
2022/12/24 01:01:16;;;;;;;22.77;4.50;;;11.10;1.00;;;;;;5087765;28;20191;-86
2022/12/24 01:03:42;;;;;;;22.87;4.53;;;11.00;1.00;;;;;;5082093;28;20498;-86
2022/12/24 01:06:13;;;;;;;21.77;4.40;;;11.00;1.00;;;;;;5084398;28;20534;-86
2022/12/24 01:08:39;;;;;;;24.13;4.97;;;11.00;1.00;;;;;;5089964;28;20290;-86
2022/12/24 01:11:06;;;;;;;17.00;4.40;;;11.00;1.00;;;;;;5081826;28;20431;-86
2022/12/24 01:13:32;;;;;;;22.93;4.60;;;11.00;1.00;;;;;;5082883;28;20487;-85
2022/12/24 01:15:58;;;;;;;26.20;4.37;;;11.00;1.00;;;;;;5089627;28;20458;-86
2022/12/24 01:18:24;;;;;;;27.30;4.53;;;11.00;1.00;;;;;;5087592;28;20504;-86
2022/12/24 01:21:01;;;;;;;27.70;4.87;;;11.00;1.00;;;;;;5090381;28;20195;-86
2022/12/24 01:23:28;;;;;;;27.50;5.33;;;11.00;1.00;;;;;;5080556;28;20212;-86
2022/12/24 01:25:53;;;;;;;22.13;4.10;;;11.00;1.00;;;;;;5085409;28;20458;-86
2022/12/24 01:28:20;;;;;;;18.30;4.43;;;10.90;1.00;;;;;;5084583;28;20482;-87
2022/12/24 01:30:46;;;;;;;26.53;5.00;;;10.90;1.00;;;;;;5087006;28;20799;-86
2022/12/24 01:33:12;;;;;;;19.47;5.87;;;10.90;1.00;;;;;;5087322;28;20462;-87
2022/12/24 01:35:39;;;;;;;23.97;5.63;;;10.90;1.00;;;;;;5099627;28;20497;-86
2022/12/24 01:38:05;;;;;;;27.13;5.90;;;10.80;1.00;;;;;;5111662;28;20478;-88
2022/12/24 01:43:23;;;;;;;24.93;4.50;;;10.80;1.00;;;;;;5087612;28;20593;-86
2022/12/24 01:45:55;;;;;;;25.33;5.27;;;10.80;1.00;;;;;;5106197;28;20428;-87
2022/12/24 01:48:42;;;;;;;18.60;4.73;;;10.80;1.00;;;;;;5075582;28;20822;-86
2022/12/24 01:51:34;;;;;;;20.60;5.30;;;10.80;1.00;;;;;;5079478;28;20434;-86
2022/12/24 01:54:11;;;;;;;26.23;5.83;;;10.80;1.00;;;;;;5083377;28;20530;-86
2022/12/24 01:56:42;;;;;;;16.10;3.90;;;10.80;1.00;;;;;;5084391;28;20430;-86
2022/12/24 01:59:10;;;;;;;20.43;4.17;;;10.80;1.00;;;;;;5086186;28;20449;-86
2022/12/24 02:01:36;;;;;;;18.50;5.20;;;10.80;1.00;;;;;;5084041;28;20470;-86
2022/12/24 02:04:10;;;;;;;35.10;5.47;;;10.70;1.00;;;;;;5084172;28;20462;-86
2022/12/24 02:06:35;;;;;;;24.30;5.07;;;10.70;1.00;;;;;;5078771;28;20180;-86
2022/12/24 02:09:01;;;;;;;14.23;4.20;;;10.70;1.00;;;;;;5088459;28;20457;-87
2022/12/24 02:11:27;;;;;;;26.70;4.57;;;10.70;1.00;;;;;;5082462;28;20688;-86
2022/12/24 02:13:55;;;;;;;31.23;5.70;;;10.70;1.00;;;;;;5085882;28;20484;-86
2022/12/24 02:16:58;;;;;;;19.10;4.93;;;10.70;1.00;;;;;;5085946;28;20185;-86
2022/12/24 02:20:02;;;;;;;23.90;4.73;;;10.70;1.00;;;;;;5082424;28;20440;-87
2022/12/24 02:22:33;;;;;;;20.53;5.80;;;10.70;1.00;;;;;;5083010;28;20480;-85
2022/12/24 02:25:08;;;;;;;25.10;5.47;;;10.70;1.00;;;;;;5084505;28;20967;-86
2022/12/24 02:27:44;;;;;;;26.63;4.93;;;10.80;1.00;;;;;;5080884;28;20449;-86
2022/12/24 02:30:13;;;;;;;17.50;5.53;;;10.80;1.00;;;;;;5085925;28;20465;-86
2022/12/24 02:33:03;;;;;;;22.93;5.70;;;10.90;1.00;;;;;;5083952;28;20434;-87
2022/12/24 02:36:13;;;;;;;22.70;4.77;;;10.90;1.00;;;;;;5084771;28;20440;-86
2022/12/24 02:39:09;;;;;;;18.33;4.70;;;11.00;1.00;;;;;;5071966;28;21369;-87
2022/12/24 02:44:29;;;;;;;29.47;5.50;;;11.00;1.00;;;;;;5086618;28;20469;-86
2022/12/24 02:46:57;;;;;;;31.60;4.77;;;11.00;1.00;;;;;;5073847;28;20431;-87
2022/12/24 02:49:23;;;;;;;21.80;4.33;;;11.00;1.00;;;;;;5084652;28;20441;-86
2022/12/24 02:51:48;;;;;;;17.23;4.47;;;11.00;1.00;;;;;;5083600;28;20945;-86
2022/12/24 02:54:14;;;;;;;23.43;5.70;;;11.00;1.00;;;;;;5085438;28;20188;-87
2022/12/24 02:57:03;;;;;;;22.20;6.23;;;11.00;1.00;;;;;;5074439;28;20538;-86
2022/12/24 02:59:42;;;;;;;17.00;3.87;;;11.00;1.00;;;;;;5044932;28;20445;-86
2022/12/24 03:02:45;;;;;;;22.83;4.33;;;11.00;1.00;;;;;;5091281;28;20461;-87
2022/12/24 03:05:50;;;;;;;20.63;4.60;;;11.00;1.00;;;;;;5085001;28;20495;-87
2022/12/24 03:08:21;;;;;;;13.47;3.40;;;10.90;1.00;;;;;;5077124;28;20458;-87
2022/12/24 03:10:55;;;;;;;22.17;5.27;;;10.90;1.00;;;;;;5084748;28;20516;-87
2022/12/24 03:13:22;;;;;;;19.20;4.20;;;10.90;1.00;;;;;;5084072;28;20438;-87
2022/12/24 03:15:48;;;;;;;17.20;4.00;;;10.90;1.00;;;;;;5086163;28;20524;-88
2022/12/24 03:18:18;;;;;;;12.03;3.80;;;10.90;1.00;;;;;;5091687;28;20491;-86
2022/12/24 03:20:48;;;;;;;14.83;3.57;;;10.90;1.00;;;;;;5086551;28;20446;-87
2022/12/24 03:23:14;;;;;;;21.00;3.40;;;10.90;1.00;;;;;;5080582;28;20479;-86
2022/12/24 03:25:42;;;;;;;16.33;3.63;;;10.90;1.00;;;;;;5081595;28;20929;-87
2022/12/24 03:28:10;;;;;;;15.03;3.23;;;10.80;1.00;;;;;;5078464;28;20553;-87
2022/12/24 03:30:39;;;;;;;14.83;4.73;;;10.80;1.00;;;;;;5081955;28;20434;-86
2022/12/24 03:33:05;;;;;;;21.93;5.13;;;10.80;1.00;;;;;;5081250;28;20513;-86
2022/12/24 03:35:30;;;;;;;12.63;2.93;;;10.80;1.00;;;;;;5084416;28;20541;-86
2022/12/24 03:37:56;;;;;;;15.73;3.30;;;10.70;1.00;;;;;;5083839;28;20781;-87
2022/12/24 03:40:22;;;;;;;13.80;3.50;;;10.70;1.00;;;;;;5087654;28;20278;-86
2022/12/24 03:42:47;;;;;;;14.50;2.70;;;10.60;1.00;;;;;;5078455;28;20204;-86
2022/12/24 03:45:13;;;;;;;16.77;3.27;;;10.60;1.00;;;;;;5089172;28;20180;-86
2022/12/24 03:47:38;;;;;;;14.83;2.67;;;10.60;1.00;;;;;;5090777;28;20705;-86
2022/12/24 03:50:05;;;;;;;11.40;3.00;;;10.60;1.00;;;;;;5091422;28;20263;-86
2022/12/24 03:52:30;;;;;;;6.90;2.17;;;10.60;1.00;;;;;;5088983;28;20184;-87
2022/12/24 03:54:56;;;;;;;13.47;2.40;;;10.60;1.00;;;;;;5084371;28;20484;-86
2022/12/24 03:57:21;;;;;;;12.40;2.53;;;10.60;1.00;;;;;;5090395;28;20196;-86
2022/12/24 03:59:47;;;;;;;16.20;3.90;;;10.60;1.00;;;;;;5089520;28;20188;-86
2022/12/24 04:02:12;;;;;;;9.97;2.40;;;10.70;1.00;;;;;;5085962;28;20695;-86
2022/12/24 04:04:38;;;;;;;8.33;2.27;;;10.70;1.00;;;;;;5086463;28;20648;-86
2022/12/24 04:07:05;;;;;;;5.87;2.07;;;10.70;1.00;;;;;;5085604;28;20192;-86
2022/12/24 04:09:31;;;;;;;8.37;2.63;;;10.60;1.00;;;;;;5084727;28;20172;-87
2022/12/24 04:11:56;;;;;;;12.40;2.60;;;10.60;1.00;;;;;;5078775;28;20974;-86
2022/12/24 04:14:22;;;;;;;18.10;2.87;;;10.60;1.00;;;;;;5084373;28;20441;-86
2022/12/24 04:16:47;;;;;;;10.07;2.30;;;10.60;1.00;;;;;;5083639;28;20265;-86
2022/12/24 04:19:13;;;;;;;10.87;2.90;;;10.60;1.00;;;;;;5085359;28;20225;-87
2022/12/24 04:21:38;;;;;;;12.60;3.07;;;10.60;1.00;;;;;;5086143;28;20311;-86
2022/12/24 04:24:04;;;;;;;10.67;3.20;;;10.60;1.00;;;;;;5088452;28;20196;-87
2022/12/24 04:26:30;;;;;;;10.10;3.20;;;10.50;1.00;;;;;;5089693;28;20176;-86
2022/12/24 04:28:55;;;;;;;16.13;3.60;;;10.50;1.00;;;;;;5081160;28;20455;-87
2022/12/24 04:31:21;;;;;;;15.73;4.10;;;10.50;1.00;;;;;;5088051;28;20173;-85
2022/12/24 04:33:46;;;;;;;16.63;3.90;;;10.40;1.00;;;;;;5088646;28;20199;-87
2022/12/24 04:36:15;;;;;;;13.77;4.20;;;10.40;1.00;;;;;;5086069;28;20181;-87
2022/12/24 04:38:41;;;;;;;19.67;4.27;;;10.40;1.00;;;;;;5083252;28;20196;-86
2022/12/24 04:41:11;;;;;;;16.97;3.23;;;10.40;1.00;;;;;;5091606;28;20438;-87
2022/12/24 04:43:36;;;;;;;13.90;3.00;;;10.30;1.00;;;;;;5093369;28;20430;-86
2022/12/24 04:46:19;;;;;;;15.10;3.90;;;10.30;1.00;;;;;;5089778;28;20439;-86
2022/12/24 04:48:46;;;;;;;14.10;3.50;;;10.30;1.00;;;;;;5087287;28;20677;-86
2022/12/24 04:51:12;;;;;;;13.60;3.67;;;10.30;1.00;;;;;;5082044;28;20427;-86
2022/12/24 04:53:39;;;;;;;12.63;3.33;;;10.20;1.00;;;;;;5084587;28;20438;-87
2022/12/24 04:56:13;;;;;;;15.53;3.80;;;10.30;1.00;;;;;;5086318;28;20931;-87
2022/12/24 04:58:39;;;;;;;21.07;4.93;;;10.20;1.00;;;;;;5090509;28;20452;-86
2022/12/24 05:01:06;;;;;;;16.27;4.00;;;10.20;1.00;;;;;;5090265;28;20422;-87
2022/12/24 05:03:33;;;;;;;19.83;4.43;;;10.20;1.00;;;;;;5079722;28;20180;-86
2022/12/24 05:06:07;;;;;;;23.60;5.20;;;10.20;1.00;;;;;;5084802;28;20509;-86
2022/12/24 05:08:33;;;;;;;16.27;4.43;;;10.20;1.00;;;;;;5099671;28;20441;-88
2022/12/24 05:10:59;;;;;;;14.67;4.57;;;10.20;1.00;;;;;;5111402;28;20786;-86
2022/12/24 05:13:25;;;;;;;17.80;3.50;;;10.30;1.00;;;;;;5101480;28;20180;-87
2022/12/24 05:15:51;;;;;;;20.70;5.40;;;10.30;1.00;;;;;;5114097;28;20442;-87
2022/12/24 05:18:17;;;;;;;22.23;4.50;;;10.30;1.00;;;;;;5106321;28;20467;-86
2022/12/24 05:20:43;;;;;;;26.23;5.50;;;10.30;1.00;;;;;;5079478;28;20202;-87
2022/12/24 05:26:25;;;;;;;17.70;4.63;;;10.30;1.00;;;;;;5079205;28;20802;-86
2022/12/24 05:28:53;;;;;;;21.47;5.57;;;10.30;1.00;;;;;;5087763;28;20450;-86
2022/12/24 05:31:20;;;;;;;13.23;4.23;;;10.30;1.00;;;;;;5084471;28;20979;-85
2022/12/24 05:33:45;;;;;;;23.57;6.10;;;10.30;1.00;;;;;;5082237;28;20503;-86
2022/12/24 05:36:11;;;;;;;20.07;4.77;;;10.40;1.00;;;;;;5083459;28;20434;-85
2022/12/24 05:38:36;;;;;;;20.67;4.47;;;10.40;1.00;;;;;;5089375;28;20246;-86
2022/12/24 05:41:02;;;;;;;19.07;4.63;;;10.40;1.00;;;;;;5087435;28;20192;-86
2022/12/24 05:43:28;;;;;;;18.07;5.07;;;10.50;1.00;;;;;;5092628;28;20236;-86
2022/12/24 05:46:02;;;;;;;24.83;6.90;;;10.50;1.00;;;;;;5085927;28;20473;-86
2022/12/24 05:48:28;;;;;;;24.67;5.30;;;10.60;1.00;;;;;;5078682;28;20230;-86
2022/12/24 05:50:54;;;;;;;26.60;6.33;;;10.60;1.00;;;;;;5086082;28;21008;-86
2022/12/24 05:53:20;;;;;;;25.07;4.60;;;10.70;1.00;;;;;;5087277;28;20516;-87
2022/12/24 05:55:45;;;;;;;17.67;4.50;;;10.70;1.00;;;;;;5086135;28;20238;-87
2022/12/24 05:58:11;;;;;;;24.90;5.90;;;10.70;1.00;;;;;;5081757;28;20462;-86
2022/12/24 06:00:37;;;;;;;28.40;6.67;;;10.70;1.00;;;;;;5077230;28;20188;-86
2022/12/24 06:03:02;;;;;;;23.17;6.00;;;10.70;1.00;;;;;;5075591;28;20615;-87
2022/12/24 06:05:28;;;;;;;29.63;6.07;;;10.70;1.00;;;;;;5074183;28;20241;-86
2022/12/24 06:07:53;;;;;;;22.83;6.37;;;10.70;1.00;;;;;;5085158;28;20216;-87
2022/12/24 06:10:19;;;;;;;19.57;5.77;;;10.70;1.00;;;;;;5079289;28;20434;-86
2022/12/24 06:12:45;;;;;;;25.33;6.30;;;10.60;1.00;;;;;;5083590;28;20196;-86
2022/12/24 06:15:10;;;;;;;22.20;5.40;;;10.70;1.00;;;;;;5078859;28;20192;-86
2022/12/24 06:17:36;;;;;;;34.47;5.80;;;10.70;1.00;;;;;;5092159;28;20208;-86
2022/12/24 06:20:02;;;;;;;29.57;7.33;;;10.70;1.00;;;;;;5084974;28;20266;-87
2022/12/24 06:22:28;;;;;;;14.77;4.80;;;10.70;1.00;;;;;;5085990;28;20199;-86
2022/12/24 06:24:53;;;;;;;24.07;6.07;;;10.70;1.00;;;;;;5077617;28;20902;-87
2022/12/24 06:27:19;;;;;;;26.23;6.03;;;10.70;1.00;;;;;;5085985;28;20199;-87
2022/12/24 06:29:44;;;;;;;21.60;5.97;;;10.70;1.00;;;;;;5086243;28;20184;-86
2022/12/24 06:32:10;;;;;;;18.60;4.63;;;10.70;1.00;;;;;;5082643;28;20188;-86
2022/12/24 06:34:36;;;;;;;22.27;6.33;;;10.70;1.00;;;;;;5079099;28;20442;-87
2022/12/24 06:37:04;;;;;;;19.33;4.73;;;10.70;1.00;;;;;;5087285;28;20219;-86
2022/12/24 06:39:29;;;;;;;38.07;5.50;;;10.80;1.00;;;;;;5086267;28;20193;-87
2022/12/24 06:41:55;;;;;;;27.80;5.10;;;10.80;1.00;;;;;;5086376;28;20463;-87
2022/12/24 06:44:20;;;;;;;18.03;4.50;;;10.80;1.00;;;;;;5078063;28;20652;-86
2022/12/24 06:46:46;;;;;;;18.87;4.90;;;10.80;1.00;;;;;;5076968;28;20184;-86
2022/12/24 06:49:11;;;;;;;29.57;6.50;;;10.80;1.00;;;;;;5075241;28;20204;-87
2022/12/24 06:51:37;;;;;;;33.70;5.23;;;10.80;1.00;;;;;;5088804;28;20195;-87
2022/12/24 06:54:03;;;;;;;34.17;6.27;;;10.80;1.00;;;;;;5097701;28;20179;-87
2022/12/24 06:56:28;;;;;;;19.33;5.23;;;10.80;1.00;;;;;;5097708;28;20184;-87
2022/12/24 06:58:54;;;;;;;26.03;5.87;;;10.80;1.00;;;;;;5090721;28;20295;-87
2022/12/24 07:01:20;;;;;;;18.57;4.03;;;10.80;1.00;;;;;;5089214;28;20197;-87
2022/12/24 07:03:47;;;;;;;24.97;5.20;;;10.80;1.00;;;;;;5089444;28;20180;-87
2022/12/24 07:06:28;;;;;;;15.13;5.00;;;10.80;1.00;;;;;;5103150;28;20429;-87
2022/12/24 07:08:54;;;;;;;28.03;5.20;;;10.80;1.00;;;;;;5094696;28;20442;-87
2022/12/24 07:11:20;;;;;;;30.03;5.13;;;10.80;1.00;;;;;;5089296;28;20425;-87
2022/12/24 07:13:46;;;;;;;31.67;6.03;;;10.70;1.00;;;;;;5091806;28;20402;-86
2022/12/24 07:16:11;;;;;;;22.50;5.80;;;10.70;1.00;;;;;;5096448;28;20963;-86
2022/12/24 07:18:37;;;;;;;18.50;5.10;;;10.70;1.00;;;;;;5095106;28;20438;-86
2022/12/24 07:21:04;;;;;;;21.60;5.30;;;10.60;1.00;;;;;;5085761;28;20555;-85
2022/12/24 07:23:30;;;;;;;23.40;5.20;;;10.60;1.00;;;;;;5087870;28;20208;-86
2022/12/24 07:26:03;;;;;;;27.97;5.87;;;10.60;1.00;;;;;;5124821;27;20409;-85
2022/12/24 07:28:29;;;;;;;27.17;4.60;;;10.60;1.00;;;;;;5116197;28;20843;-86
2022/12/24 07:30:56;;;;;;;29.30;7.23;;;10.60;1.00;;;;;;5109684;28;20426;-87
2022/12/24 07:33:22;;;;;;;27.03;5.03;;;10.60;1.00;;;;;;5093539;28;20441;-87
2022/12/24 07:35:48;;;;;;;22.80;5.43;;;10.60;1.00;;;;;;5088416;28;20441;-86
2022/12/24 07:38:13;;;;;;;22.73;5.27;;;10.60;1.00;;;;;;5080586;28;20500;-87
2022/12/24 07:40:39;;;;;;;20.03;4.77;;;10.70;1.00;;;;;;5087657;28;20446;-87
2022/12/24 07:43:14;;;;;;;31.17;6.00;;;10.70;1.00;;;;;;5078599;28;20222;-86
2022/12/24 07:45:40;;;;;;;22.50;4.73;;;10.80;1.00;;;;;;5087221;28;20669;-87
2022/12/24 07:48:05;;;;;;;19.07;5.00;;;10.90;1.00;;;;;;5087345;28;20461;-87
2022/12/24 07:50:31;;;;;;;22.10;6.33;;;10.90;1.00;;;;;;5085149;28;20199;-86
2022/12/24 07:52:59;;;;;;;17.53;4.90;;;11.00;1.00;;;;;;5080357;28;20193;-87
2022/12/24 07:55:24;;;;;;;17.13;4.57;;;11.00;1.00;;;;;;5080653;28;20259;-87
2022/12/24 07:57:50;;;;;;;21.40;5.43;;;11.00;1.00;;;;;;5090558;28;20564;-87
2022/12/24 08:00:16;;;;;;;23.73;4.93;;;11.10;1.00;;;;;;5084979;28;20908;-87
2022/12/24 08:02:41;;;;;;;17.70;4.60;;;11.10;1.00;;;;;;5076906;28;20236;-87
2022/12/24 08:05:10;;;;;;;24.83;4.53;;;11.20;1.00;;;;;;5085751;28;20434;-87
2022/12/24 08:07:36;;;;;;;18.07;5.77;;;11.20;1.00;;;;;;5086679;28;20297;-87
2022/12/24 08:10:01;;;;;;;37.83;7.53;;;11.30;1.00;;;;;;5086039;28;20638;-86
2022/12/24 08:12:27;;;;;;;25.13;5.60;;;11.30;1.00;;;;;;5087364;28;20195;-86
2022/12/24 08:14:52;;;;;;;22.57;4.93;;;11.40;1.00;;;;;;5076567;28;20707;-86
2022/12/24 08:17:18;;;;;;;21.13;5.27;;;11.40;99.90;;;;;;5082027;28;20288;-86
2022/12/24 08:20:34;;;;;;;23.00;5.27;;;11.40;99.90;;;;;;5086235;28;20596;-85
2022/12/24 08:23:00;;;;;;;19.13;4.77;;;11.40;99.90;;;;;;5103825;28;20231;-86
2022/12/24 08:25:25;;;;;;;30.13;5.20;;;11.50;99.90;;;;;;5081258;28;20481;-85
2022/12/24 08:27:51;;;;;;;32.37;5.67;;;11.50;99.90;;;;;;5081769;28;20288;-86
2022/12/24 08:30:17;;;;;;;24.97;5.03;;;11.50;99.90;;;;;;5081422;28;20185;-86
2022/12/24 08:32:42;;;;;;;22.07;5.17;;;11.60;99.90;;;;;;5093837;28;20249;-86
2022/12/24 08:35:08;;;;;;;23.93;5.40;;;11.60;99.90;;;;;;5097454;28;20674;-87
2022/12/24 08:37:33;;;;;;;30.17;5.30;;;11.70;99.90;;;;;;5090458;28;20215;-86
2022/12/24 08:39:59;;;;;;;20.43;6.90;;;11.80;99.90;;;;;;5083189;28;20251;-86
2022/12/24 08:42:24;;;;;;;25.87;6.70;;;11.80;99.90;;;;;;5085033;28;20624;-86
2022/12/24 08:44:50;;;;;;;22.50;4.80;;;11.90;99.90;;;;;;5087948;28;20178;-86
2022/12/24 08:47:15;;;;;;;21.93;5.20;;;11.90;99.90;;;;;;5091279;28;20648;-86
2022/12/24 08:49:41;;;;;;;21.40;5.50;;;11.90;99.90;;;;;;5082995;28;20219;-86
2022/12/24 08:52:06;;;;;;;21.63;4.63;;;11.90;99.90;;;;;;5083239;28;20211;-87
2022/12/24 08:54:32;;;;;;;22.03;5.10;;;11.90;99.90;;;;;;5105792;28;20589;-87
2022/12/24 08:56:57;;;;;;;25.50;5.73;;;11.80;99.90;;;;;;5101625;28;20232;-85
2022/12/24 08:59:23;;;;;;;26.20;5.70;;;11.80;99.90;;;;;;5085153;28;20180;-87
2022/12/24 09:01:49;;;;;;;30.57;6.70;;;11.70;99.90;;;;;;5095399;28;21040;-86
2022/12/24 09:04:14;;;;;;;27.67;5.70;;;11.70;99.90;;;;;;5073081;28;20223;-87
2022/12/24 09:06:40;;;;;;;35.10;6.97;;;11.70;99.90;;;;;;5074301;28;20180;-87
2022/12/24 09:09:06;;;;;;;16.80;5.20;;;11.80;99.90;;;;;;5082837;28;20207;-85
2022/12/24 09:11:33;;;;;;;29.00;7.53;;;11.80;99.90;;;;;;5087937;28;20176;-86
2022/12/24 09:14:04;;;;;;;19.20;5.40;;;11.80;99.90;;;;;;5086608;28;20488;-85
2022/12/24 09:16:29;;;;;;;32.67;6.33;;;11.80;99.90;;;;;;5079678;28;20427;-86
2022/12/24 09:18:56;;;;;;;22.47;5.20;;;11.80;99.90;;;;;;5074561;28;20459;-86
2022/12/24 09:21:22;;;;;;;27.23;5.07;;;11.80;99.90;;;;;;5080886;28;21797;-85
2022/12/24 09:23:48;;;;;;;25.33;6.10;;;11.80;99.90;;;;;;5081302;28;20435;-86
2022/12/24 09:26:22;;;;;;;31.17;5.77;;;11.90;99.90;;;;;;5074463;28;20427;-86
2022/12/24 09:28:48;;;;;;;30.17;6.17;;;11.90;99.90;;;;;;5084799;28;20274;-86
2022/12/24 09:31:17;;;;;;;23.27;5.53;;;12.00;99.90;;;;;;5094271;28;20506;-86
2022/12/24 09:33:45;;;;;;;32.00;6.80;;;12.00;99.90;;;;;;5079688;28;20427;-86
2022/12/24 09:36:11;;;;;;;33.33;7.53;;;12.00;99.90;;;;;;5079631;28;20450;-86
2022/12/24 09:38:37;;;;;;;25.13;5.40;;;12.00;99.90;;;;;;5077608;28;20511;-86
2022/12/24 09:41:11;;;;;;;20.33;5.50;;;12.00;99.90;;;;;;5082331;28;20458;-86
2022/12/24 09:43:37;;;;;;;26.13;5.40;;;12.00;99.90;;;;;;5078180;28;20461;-88
2022/12/24 09:46:08;;;;;;;24.47;5.53;;;12.00;99.90;;;;;;5075926;28;20434;-87
2022/12/24 09:48:42;;;;;;;22.53;5.47;;;11.90;99.90;;;;;;5083243;28;20430;-87
2022/12/24 09:51:20;;;;;;;20.13;5.43;;;12.00;99.90;;;;;;5091977;28;20455;-87
2022/12/24 09:54:13;;;;;;;24.13;5.90;;;12.00;99.90;;;;;;5092143;28;20448;-86
2022/12/24 09:56:43;;;;;;;24.80;6.10;;;12.10;99.90;;;;;;5092737;28;20822;-87
2022/12/24 09:59:27;;;;;;;22.93;6.13;;;12.20;17.80;;;;;;5092363;28;20426;-87
2022/12/24 10:01:53;;;;;;;29.63;5.77;;;12.30;1.00;;;;;;5083740;28;20466;-86
2022/12/24 10:04:27;;;;;;;29.57;6.13;;;12.50;1.00;;;;;;5089327;28;20414;-87
2022/12/24 10:06:58;;;;;;;34.63;5.50;;;12.50;1.00;;;;;;5090798;28;20410;-86
2022/12/24 10:09:47;;;;;;;30.23;6.60;;;12.70;99.90;;;;;;5090528;28;20418;-87
2022/12/24 10:12:15;;;;;;;24.40;5.77;;;12.80;99.90;;;;;;5081362;28;20402;-86
2022/12/24 10:15:02;;;;;;;24.23;5.37;;;13.00;1.00;;;;;;5091826;28;20414;-87
2022/12/24 10:17:46;;;;;;;30.80;6.00;;;13.10;1.00;;;;;;5092078;28;20422;-86
2022/12/24 10:20:33;;;;;;;25.73;5.50;;;13.40;1.00;;;;;;5089011;28;20434;-86
2022/12/24 10:23:11;;;;;;;24.40;5.93;;;13.60;99.90;;;;;;5085829;28;20876;-87
2022/12/24 10:26:04;;;;;;;21.83;5.63;;;13.60;1.00;;;;;;5089968;28;20663;-87
2022/12/24 10:28:41;;;;;;;27.53;5.90;;;13.60;1.00;;;;;;5091228;28;20529;-87
2022/12/24 10:31:07;;;;;;;23.67;5.40;;;13.40;1.00;;;;;;5091931;28;20399;-87
2022/12/24 10:33:46;;;;;;;20.50;7.00;;;13.30;1.00;;;;;;5091694;28;20431;-87
2022/12/24 10:36:17;;;;;;;21.80;6.27;;;13.20;99.90;;;;;;5088739;28;20789;-87
2022/12/24 10:38:52;;;;;;;19.97;5.77;;;13.20;99.90;;;;;;5087818;28;20442;-86
2022/12/24 10:41:18;;;;;;;22.07;5.50;;;13.30;99.90;;;;;;5090282;28;20453;-88
2022/12/24 10:43:45;;;;;;;23.07;5.87;;;13.30;19.40;;;;;;5090652;28;20501;-87
2022/12/24 10:46:21;;;;;;;25.40;6.03;;;13.20;1.00;;;;;;5092043;28;20777;-88
2022/12/24 10:48:57;;;;;;;30.40;7.50;;;13.20;1.00;;;;;;5091613;28;20430;-88
2022/12/24 10:51:57;;;;;;;24.37;5.30;;;13.30;1.00;;;;;;5091961;28;20392;-87
2022/12/24 10:54:25;;;;;;;19.50;6.10;;;13.50;99.90;;;;;;5079733;28;20521;-88
2022/12/24 10:56:56;;;;;;;27.13;5.77;;;13.50;99.90;;;;;;5090311;28;20431;-87
2022/12/24 10:59:30;;;;;;;33.10;6.00;;;13.60;99.90;;;;;;5090910;28;20945;-88
2022/12/24 11:02:00;;;;;;;23.80;5.50;;;13.60;1.00;;;;;;5090431;28;20447;-88
2022/12/24 11:04:45;;;;;;;33.10;6.23;;;13.70;1.00;;;;;;5090149;28;20420;-88
2022/12/24 11:07:19;;;;;;;24.03;6.20;;;14.10;1.00;;;;;;5091732;28;20414;-87
2022/12/24 11:09:53;;;;;;;32.17;6.17;;;14.30;10.80;;;;;;5084769;28;20495;-88
2022/12/24 11:12:24;;;;;;;24.50;5.77;;;14.30;1.00;;;;;;5089694;28;20417;-88
2022/12/24 11:15:16;;;;;;;29.27;6.13;;;14.30;1.00;;;;;;5088688;28;20419;-88
2022/12/24 11:17:51;;;;;;;27.30;5.70;;;14.40;1.00;;;;;;5090995;28;20445;-88
2022/12/24 11:20:22;;;;;;;29.17;6.20;;;14.40;99.90;;;;;;5090251;28;20924;-87
2022/12/24 11:23:06;;;;;;;25.57;6.33;;;14.20;99.90;;;;;;5091589;28;20495;-88
2022/12/24 11:25:37;;;;;;;27.97;5.37;;;14.10;99.90;;;;;;5089668;28;20435;-87
2022/12/24 11:28:32;;;;;;;27.40;4.93;;;13.90;1.00;;;;;;5083627;28;20972;-88
2022/12/24 11:31:35;;;;;;;27.17;6.93;;;13.90;1.00;;;;;;5090109;28;20441;-87
2022/12/24 11:34:36;;;;;;;25.03;6.80;;;14.00;1.00;;;;;;5058716;28;20478;-88
2022/12/24 11:37:28;;;;;;;23.87;4.93;;;13.90;1.00;;;;;;5094072;28;20508;-87
2022/12/24 11:40:13;;;;;;;30.00;5.60;;;14.00;1.00;;;;;;5089819;28;20417;-88
2022/12/24 11:42:39;;;;;;;19.37;4.60;;;14.20;1.00;;;;;;5092464;28;20575;-87
2022/12/24 11:45:35;;;;;;;20.70;6.80;;;14.40;1.00;;;;;;5083134;28;20438;-86
2022/12/24 11:48:25;;;;;;;23.97;4.83;;;14.50;99.90;;;;;;5082307;28;20544;-87
2022/12/24 11:51:06;;;;;;;22.23;6.03;;;14.40;99.90;;;;;;5089106;28;20417;-87
2022/12/24 11:53:39;;;;;;;18.77;4.87;;;14.40;99.90;;;;;;5089119;28;20440;-87
2022/12/24 11:56:14;;;;;;;20.17;4.80;;;14.30;99.90;;;;;;5090022;28;20503;-88
2022/12/24 11:58:48;;;;;;;25.60;5.30;;;14.20;99.90;;;;;;5089539;28;20448;-88
2022/12/24 12:01:33;;;;;;;25.47;6.93;;;14.10;99.90;;;;;;5090885;28;20511;-88
2022/12/24 12:04:12;;;;;;;19.47;4.77;;;14.00;99.90;;;;;;5076667;28;20455;-88
2022/12/24 12:06:54;;;;;;;20.73;6.00;;;14.10;99.90;;;;;;5086109;28;20413;-87
2022/12/24 12:09:38;;;;;;;21.67;5.20;;;14.10;99.90;;;;;;5093133;28;20493;-88
2022/12/24 12:12:31;;;;;;;23.93;6.37;;;14.30;42.10;;;;;;5093406;28;20422;-87
2022/12/24 12:18:25;;;;;;;22.10;4.30;;;15.20;99.90;;;;;;5071680;28;20441;-87
2022/12/24 12:21:13;;;;;;;28.47;5.33;;;15.20;99.90;;;;;;5080759;28;20438;-88
2022/12/24 12:24:14;;;;;;;18.07;4.20;;;15.10;99.90;;;;;;5085584;28;20468;-88
2022/12/24 12:27:04;;;;;;;19.87;4.93;;;15.00;99.90;;;;;;5072093;28;20406;-88
2022/12/24 12:29:35;;;;;;;20.50;5.00;;;14.70;99.90;;;;;;5073136;28;20414;-87
2022/12/24 12:32:13;;;;;;;17.13;4.57;;;14.70;99.90;;;;;;5072803;28;20940;-87
2022/12/24 12:35:08;;;;;;;22.57;4.67;;;14.90;99.90;;;;;;5089649;28;20395;-88
2022/12/24 12:37:50;;;;;;;22.70;4.47;;;15.50;39.50;;;;;;5059800;28;20437;-87
2022/12/24 12:40:31;;;;;;;16.93;4.47;;;15.80;1.00;;;;;;5091129;28;20457;-88
2022/12/24 12:43:19;;;;;;;19.97;4.20;;;15.80;1.00;;;;;;5093319;28;20490;-87
2022/12/24 12:46:08;;;;;;;15.87;4.60;;;15.80;1.00;;;;;;5092146;28;20437;-88
2022/12/24 12:48:48;;;;;;;16.53;4.10;;;15.80;1.00;;;;;;5094625;28;20426;-88
2022/12/24 12:51:36;;;;;;;18.17;4.00;;;15.60;1.00;;;;;;5092851;28;20417;-88
2022/12/24 12:54:10;;;;;;;24.57;6.30;;;15.70;1.00;;;;;;5093661;28;20920;-88
2022/12/24 12:56:38;;;;;;;19.57;5.27;;;15.80;1.00;;;;;;5090357;28;21265;-87
2022/12/24 12:59:32;;;;;;;21.67;5.27;;;16.10;1.00;;;;;;5084198;28;20463;-88
2022/12/24 13:02:17;;;;;;;24.70;5.13;;;15.90;1.00;;;;;;5088881;28;21273;-88
2022/12/24 13:05:14;;;;;;;27.73;5.70;;;15.60;1.00;;;;;;5091325;28;20445;-88
2022/12/24 13:08:00;;;;;;;23.40;5.13;;;15.20;1.00;;;;;;5092197;28;20521;-87
2022/12/24 13:11:00;;;;;;;17.50;4.60;;;15.00;1.00;;;;;;5092410;28;20944;-87
2022/12/24 13:13:34;;;;;;;28.63;5.60;;;14.90;1.00;;;;;;5093230;28;20808;-88
2022/12/24 13:16:20;;;;;;;18.07;5.90;;;14.90;1.00;;;;;;5080613;28;20480;-88